Time;durP1;ratioP1;P1;durP2;ratioP2;P2;SDS_P1;SDS_P2;PMS_P1;PMS_P2;Temp;Humidity;BMP_temperature;BMP_pressure;BME280_temperature;BME280_humidity;BME280_pressure;Samples;Min_cycle;Max_cycle;Signal;HPM_P1;HPM_P2
2022/08/03 00:00:19;;;;;;;0.50;0.40;;;21.80;99.90;;;;;;5060669;28;20433;-79
2022/08/03 00:02:46;;;;;;;0.50;0.30;;;21.80;99.90;;;;;;5061176;28;20445;-80
2022/08/03 00:05:13;;;;;;;0.50;0.30;;;21.80;99.90;;;;;;5061372;28;20476;-79
2022/08/03 00:07:40;;;;;;;0.70;0.70;;;21.80;99.90;;;;;;5061489;28;20879;-80
2022/08/03 00:10:07;;;;;;;0.50;0.30;;;21.80;99.90;;;;;;5060502;28;20859;-79
2022/08/03 00:12:35;;;;;;;0.50;0.30;;;21.80;99.90;;;;;;5060811;28;20480;-79
2022/08/03 00:15:02;;;;;;;0.50;0.30;;;21.80;99.90;;;;;;5060853;28;20448;-80
2022/08/03 00:17:30;;;;;;;0.50;0.30;;;21.90;99.90;;;;;;5061399;28;20464;-80
2022/08/03 00:19:57;;;;;;;0.50;0.30;;;21.80;99.90;;;;;;5060572;28;20464;-79
2022/08/03 00:22:24;;;;;;;0.50;0.30;;;21.90;99.90;;;;;;5059755;28;20866;-79
2022/08/03 00:24:51;;;;;;;0.50;0.40;;;21.90;99.90;;;;;;5060250;28;20509;-80
2022/08/03 00:27:18;;;;;;;0.50;0.30;;;21.90;99.90;;;;;;5060959;28;20468;-80
2022/08/03 00:29:44;;;;;;;0.50;0.30;;;21.90;99.90;;;;;;5061112;28;20910;-78
2022/08/03 00:32:11;;;;;;;0.50;0.40;;;21.80;99.90;;;;;;5059322;28;20536;-81
2022/08/03 00:34:39;;;;;;;1.43;1.17;;;21.90;99.90;;;;;;5060291;28;20851;-78
2022/08/03 00:37:06;;;;;;;0.50;0.30;;;22.00;99.90;;;;;;5060746;28;20493;-79
2022/08/03 00:39:33;;;;;;;0.50;0.30;;;21.90;99.90;;;;;;5060702;28;20540;-80
2022/08/03 00:42:02;;;;;;;0.50;0.40;;;22.00;99.90;;;;;;5059816;28;20512;-80
2022/08/03 00:44:29;;;;;;;0.50;0.40;;;22.00;99.90;;;;;;5059950;28;20501;-80
2022/08/03 00:46:56;;;;;;;0.50;0.30;;;22.10;99.90;;;;;;5060827;28;20484;-79
2022/08/03 00:49:23;;;;;;;0.50;0.30;;;22.10;99.90;;;;;;5060558;28;20438;-80
2022/08/03 00:51:51;;;;;;;0.50;0.30;;;22.10;99.90;;;;;;5060196;28;20456;-76
2022/08/03 00:54:19;;;;;;;0.50;0.33;;;22.10;99.90;;;;;;5060125;28;20521;-80
2022/08/03 00:56:47;;;;;;;0.50;0.30;;;22.10;99.90;;;;;;5060093;28;20449;-80
2022/08/03 00:59:15;;;;;;;0.50;0.30;;;22.10;99.90;;;;;;5060736;28;20437;-77
2022/08/03 01:01:42;;;;;;;0.50;0.40;;;22.00;99.90;;;;;;5059689;28;20483;-80
2022/08/03 01:04:09;;;;;;;0.50;0.30;;;22.00;99.90;;;;;;5060567;28;20483;-80
2022/08/03 01:06:43;;;;;;;0.50;0.30;;;21.80;99.90;;;;;;5059797;28;20864;-79
2022/08/03 01:09:19;;;;;;;0.50;0.30;;;21.80;99.90;;;;;;5059999;28;20465;-80
2022/08/03 01:11:54;;;;;;;0.50;0.40;;;21.80;99.90;;;;;;5059441;28;20457;-80
2022/08/03 01:14:27;;;;;;;0.50;0.40;;;21.70;99.90;;;;;;5061015;28;20480;-80
2022/08/03 01:16:59;;;;;;;0.50;0.30;;;21.70;99.90;;;;;;5060289;28;21065;-79
2022/08/03 01:19:45;;;;;;;0.50;0.30;;;21.60;99.90;;;;;;5060380;28;20449;-79
2022/08/03 01:22:29;;;;;;;0.50;0.40;;;21.60;99.90;;;;;;5059685;28;20464;-80
2022/08/03 01:25:03;;;;;;;0.50;0.40;;;21.50;99.90;;;;;;5059954;28;20625;-77
2022/08/03 01:27:46;;;;;;;0.50;0.30;;;21.40;99.90;;;;;;5060390;28;20519;-80
2022/08/03 01:30:14;;;;;;;0.50;0.30;;;21.30;99.90;;;;;;5060530;28;20425;-80
2022/08/03 01:32:46;;;;;;;0.50;0.30;;;21.30;99.90;;;;;;5060130;28;20855;-80
2022/08/03 01:35:19;;;;;;;0.50;0.30;;;21.30;99.90;;;;;;5064051;28;20501;-79
2022/08/03 01:37:52;;;;;;;0.50;0.30;;;21.30;99.90;;;;;;5064705;28;20453;-78
2022/08/03 01:40:21;;;;;;;22.83;21.97;;;21.30;99.90;;;;;;5065261;28;20456;-80
2022/08/03 01:42:50;;;;;;;0.50;0.40;;;21.20;99.90;;;;;;5063048;28;20949;-80
2022/08/03 01:45:20;;;;;;;0.50;0.30;;;21.10;99.90;;;;;;5063299;28;20512;-79
2022/08/03 01:47:49;;;;;;;0.50;0.43;;;21.00;99.90;;;;;;5064046;28;20488;-80
2022/08/03 01:50:20;;;;;;;0.50;0.30;;;21.00;99.90;;;;;;5064848;28;20440;-80
2022/08/03 01:52:48;;;;;;;0.50;0.30;;;20.90;99.90;;;;;;5063561;28;20468;-80
2022/08/03 01:55:19;;;;;;;0.50;0.40;;;20.90;99.90;;;;;;5064564;28;20851;-80
2022/08/03 01:57:47;;;;;;;0.50;0.40;;;20.90;99.90;;;;;;5063952;28;20519;-79
2022/08/03 02:00:15;;;;;;;0.60;0.53;;;20.90;99.90;;;;;;5063585;28;20969;-80
2022/08/03 02:02:47;;;;;;;0.50;0.30;;;20.90;99.90;;;;;;5063533;28;20463;-80
2022/08/03 02:05:15;;;;;;;0.50;0.33;;;21.00;99.90;;;;;;5063498;28;20740;-80
2022/08/03 02:07:44;;;;;;;0.70;0.70;;;21.00;99.90;;;;;;5064415;28;20499;-79
2022/08/03 02:10:14;;;;;;;0.50;0.30;;;21.00;99.90;;;;;;5063419;28;20445;-80
2022/08/03 02:12:44;;;;;;;0.50;0.30;;;21.00;99.90;;;;;;5062122;28;20814;-79
2022/08/03 02:15:11;;;;;;;0.70;0.70;;;21.00;99.90;;;;;;5063113;28;20461;-79
2022/08/03 02:17:40;;;;;;;0.50;0.40;;;21.00;99.90;;;;;;5062660;28;20475;-80
2022/08/03 02:20:10;;;;;;;0.50;0.30;;;21.10;99.90;;;;;;5063050;28;20469;-80
2022/08/03 02:22:40;;;;;;;0.50;0.40;;;21.00;99.90;;;;;;5063025;28;20486;-80
2022/08/03 02:25:08;;;;;;;0.50;0.30;;;21.00;99.90;;;;;;5062523;28;20512;-79
2022/08/03 02:27:38;;;;;;;0.60;0.50;;;21.00;99.90;;;;;;5063175;28;20484;-80
2022/08/03 02:30:08;;;;;;;0.50;0.40;;;21.00;99.90;;;;;;5062982;28;20471;-79
2022/08/03 02:32:38;;;;;;;0.50;0.40;;;21.00;99.90;;;;;;5062403;28;20532;-79
2022/08/03 02:35:10;;;;;;;0.50;0.30;;;21.00;99.90;;;;;;5062370;28;20468;-80
2022/08/03 02:37:42;;;;;;;0.50;0.40;;;21.00;99.90;;;;;;5062481;28;20532;-79
2022/08/03 02:40:11;;;;;;;0.50;0.40;;;21.10;99.90;;;;;;5062699;28;20450;-79
2022/08/03 02:42:41;;;;;;;0.50;0.40;;;21.10;99.90;;;;;;5060646;28;20460;-79
2022/08/03 02:45:12;;;;;;;0.70;0.70;;;21.10;99.90;;;;;;5061243;28;20587;-80
2022/08/03 02:47:41;;;;;;;0.50;0.40;;;21.10;99.90;;;;;;5061807;28;20465;-79
2022/08/03 02:50:12;;;;;;;0.60;0.53;;;21.10;99.90;;;;;;5061951;28;20492;-80
2022/08/03 02:52:41;;;;;;;0.50;0.30;;;21.10;99.90;;;;;;5061722;28;20434;-80
2022/08/03 02:55:10;;;;;;;0.50;0.50;;;21.10;99.90;;;;;;5061531;28;20874;-80
2022/08/03 02:57:39;;;;;;;0.50;0.30;;;21.00;99.90;;;;;;5061809;28;20515;-79
2022/08/03 03:00:08;;;;;;;0.50;0.40;;;21.10;99.90;;;;;;5062147;28;20433;-80
2022/08/03 03:02:36;;;;;;;0.50;0.30;;;21.10;99.90;;;;;;5061765;28;20534;-80
2022/08/03 03:05:03;;;;;;;0.50;0.30;;;21.00;99.90;;;;;;5061886;28;20507;-79
2022/08/03 03:07:32;;;;;;;0.50;0.30;;;20.90;99.90;;;;;;5061427;28;20548;-80
2022/08/03 03:10:00;;;;;;;0.50;0.30;;;20.80;99.90;;;;;;5061663;28;20528;-79
2022/08/03 03:12:28;;;;;;;0.50;0.30;;;20.80;99.90;;;;;;5060609;28;20480;-80
2022/08/03 03:14:55;;;;;;;0.50;0.40;;;20.80;99.90;;;;;;5061084;28;20449;-77
2022/08/03 03:17:23;;;;;;;0.60;0.40;;;20.80;99.90;;;;;;5060528;28;20484;-78
2022/08/03 03:19:51;;;;;;;0.50;0.30;;;20.90;99.90;;;;;;5061420;28;20437;-78
2022/08/03 03:22:19;;;;;;;0.50;0.30;;;20.80;99.90;;;;;;5060046;28;20483;-79
2022/08/03 03:24:50;;;;;;;0.50;0.30;;;20.80;99.90;;;;;;5060271;28;20532;-78
2022/08/03 03:27:17;;;;;;;0.90;0.80;;;20.80;99.90;;;;;;5060785;28;20503;-79
2022/08/03 03:29:44;;;;;;;0.60;0.40;;;20.70;99.90;;;;;;5059533;28;20464;-79
2022/08/03 03:32:11;;;;;;;0.50;0.40;;;20.70;99.90;;;;;;5059658;28;20839;-78
2022/08/03 03:34:39;;;;;;;0.50;0.40;;;20.70;99.90;;;;;;5060310;28;20520;-78
2022/08/03 03:37:06;;;;;;;0.73;0.50;;;20.70;99.90;;;;;;5060052;28;20503;-79
2022/08/03 03:39:33;;;;;;;0.50;0.40;;;20.70;99.90;;;;;;5060545;28;20472;-78
2022/08/03 03:42:02;;;;;;;0.60;0.50;;;20.70;99.90;;;;;;5059333;28;20457;-79
2022/08/03 03:44:29;;;;;;;0.50;0.30;;;20.70;99.90;;;;;;5059492;28;20481;-78
2022/08/03 03:46:57;;;;;;;0.50;0.30;;;20.70;99.90;;;;;;5058372;28;20507;-78
2022/08/03 03:49:24;;;;;;;0.50;0.30;;;20.60;99.90;;;;;;5059124;28;20433;-78
2022/08/03 03:51:53;;;;;;;0.50;0.40;;;20.60;99.90;;;;;;5058284;28;20480;-78
2022/08/03 03:54:21;;;;;;;0.50;0.30;;;20.50;99.90;;;;;;5059743;28;20441;-78
2022/08/03 03:56:48;;;;;;;0.50;0.40;;;20.50;99.90;;;;;;5058337;28;20457;-79
2022/08/03 03:59:16;;;;;;;0.50;0.30;;;20.50;99.90;;;;;;5059036;28;20448;-80
2022/08/03 04:01:43;;;;;;;0.50;0.30;;;20.50;99.90;;;;;;5059106;28;20524;-79
2022/08/03 04:12:39;;;;;;;0.50;0.30;;;20.50;99.90;;;;;;5057362;28;20427;-79
2022/08/03 04:15:09;;;;;;;0.60;0.60;;;20.50;99.90;;;;;;5058753;28;20437;-79
2022/08/03 04:17:36;;;;;;;0.50;0.30;;;20.60;99.90;;;;;;5059613;28;20492;-80
2022/08/03 04:20:05;;;;;;;0.50;0.30;;;20.60;99.90;;;;;;5058891;28;20472;-78
2022/08/03 04:22:34;;;;;;;0.60;0.40;;;20.50;99.90;;;;;;5056546;28;20814;-79
2022/08/03 04:25:04;;;;;;;0.50;0.30;;;20.50;99.90;;;;;;5056555;28;20475;-79
2022/08/03 04:27:38;;;;;;;2.60;1.67;;;20.50;99.90;;;;;;5057602;28;20497;-78
2022/08/03 04:30:08;;;;;;;0.50;0.40;;;20.60;99.90;;;;;;5057606;28;20511;-79
2022/08/03 04:32:37;;;;;;;0.50;0.40;;;20.60;99.90;;;;;;5057123;28;20455;-80
2022/08/03 04:35:04;;;;;;;0.50;0.30;;;20.60;99.90;;;;;;5057459;28;20516;-79
2022/08/03 04:37:38;;;;;;;0.50;0.30;;;20.60;99.90;;;;;;5057822;28;20528;-79
2022/08/03 04:40:09;;;;;;;0.50;0.30;;;20.60;99.90;;;;;;5056727;28;21185;-78
2022/08/03 04:42:38;;;;;;;2.20;2.10;;;20.70;99.90;;;;;;5056704;28;20453;-80
2022/08/03 04:45:08;;;;;;;0.50;0.40;;;20.70;99.90;;;;;;5057615;28;20560;-78
2022/08/03 04:47:37;;;;;;;0.50;0.30;;;20.70;99.90;;;;;;5057737;28;20484;-81
2022/08/03 04:50:06;;;;;;;0.50;0.30;;;20.70;99.90;;;;;;5058591;28;20491;-81
2022/08/03 04:52:34;;;;;;;0.50;0.40;;;20.70;99.90;;;;;;5056890;28;20497;-79
2022/08/03 04:55:01;;;;;;;0.50;0.40;;;20.70;99.90;;;;;;5055208;28;20444;-79
2022/08/03 04:57:28;;;;;;;0.50;0.30;;;20.70;99.90;;;;;;5055173;28;20457;-78
2022/08/03 04:59:55;;;;;;;0.60;0.60;;;20.70;99.90;;;;;;5056760;28;20459;-80
2022/08/03 05:02:24;;;;;;;0.50;0.30;;;20.80;99.90;;;;;;5056862;28;20867;-80
2022/08/03 05:04:50;;;;;;;0.50;0.30;;;20.80;99.90;;;;;;5055679;28;20524;-80
2022/08/03 05:07:18;;;;;;;0.50;0.40;;;20.90;99.90;;;;;;5057190;28;20461;-80
2022/08/03 05:09:45;;;;;;;0.50;0.30;;;20.90;99.90;;;;;;5058988;28;20529;-80
2022/08/03 05:12:12;;;;;;;0.60;0.50;;;21.00;99.90;;;;;;5058194;28;20445;-77
2022/08/03 05:14:40;;;;;;;0.50;0.40;;;21.00;99.90;;;;;;5057122;28;20426;-79
2022/08/03 05:17:06;;;;;;;0.50;0.40;;;21.00;99.90;;;;;;5060566;28;20453;-79
2022/08/03 05:19:35;;;;;;;0.50;0.30;;;21.00;99.90;;;;;;5062177;28;20528;-80
2022/08/03 05:22:02;;;;;;;0.50;0.30;;;21.00;99.90;;;;;;5061592;28;20465;-80
2022/08/03 05:24:29;;;;;;;0.50;0.30;;;21.10;99.90;;;;;;5060436;28;20448;-79
2022/08/03 05:26:55;;;;;;;0.50;0.30;;;21.20;99.90;;;;;;5059696;28;20515;-78
2022/08/03 05:29:22;;;;;;;0.50;0.40;;;21.30;99.90;;;;;;5060279;28;20441;-79
2022/08/03 05:31:49;;;;;;;0.50;0.30;;;21.40;99.90;;;;;;5058615;28;20468;-80
2022/08/03 05:34:16;;;;;;;0.50;0.40;;;21.40;99.90;;;;;;5059834;28;20480;-79
2022/08/03 05:36:44;;;;;;;0.50;0.40;;;21.50;99.90;;;;;;5060230;28;20659;-79
2022/08/03 05:39:11;;;;;;;0.50;0.30;;;21.60;99.90;;;;;;5060678;28;20543;-81
2022/08/03 05:41:39;;;;;;;0.50;0.30;;;21.60;99.90;;;;;;5060082;28;20495;-80
2022/08/03 05:44:06;;;;;;;0.60;0.50;;;21.80;99.90;;;;;;5061304;28;20463;-81
2022/08/03 05:46:32;;;;;;;0.50;0.30;;;21.90;99.90;;;;;;5060050;28;20568;-80
2022/08/03 05:48:59;;;;;;;0.50;0.30;;;22.00;99.90;;;;;;5061288;28;20467;-79
2022/08/03 05:51:27;;;;;;;0.50;0.30;;;22.10;99.90;;;;;;5060154;28;20502;-81
2022/08/03 05:53:55;;;;;;;0.50;0.40;;;22.20;99.90;;;;;;5059341;28;20472;-79
2022/08/03 05:56:23;;;;;;;0.50;0.40;;;22.30;99.90;;;;;;5058779;28;20544;-79
2022/08/03 05:58:51;;;;;;;0.50;0.40;;;22.50;99.90;;;;;;5059785;28;20838;-80
2022/08/03 06:01:20;;;;;;;0.50;0.30;;;22.50;99.90;;;;;;5059689;28;20434;-77
2022/08/03 06:03:47;;;;;;;0.50;0.40;;;22.70;99.90;;;;;;5059376;28;20982;-80
2022/08/03 06:06:15;;;;;;;0.50;0.30;;;22.80;99.90;;;;;;5058633;28;21088;-79
2022/08/03 06:08:43;;;;;;;0.50;0.30;;;23.10;99.90;;;;;;5059634;28;20540;-80
2022/08/03 06:11:12;;;;;;;0.50;0.30;;;24.20;99.90;;;;;;5059104;28;21254;-80
2022/08/03 06:13:39;;;;;;;1.80;1.70;;;25.70;99.90;;;;;;5059568;28;20496;-79
2022/08/03 06:16:06;;;;;;;0.80;0.80;;;27.40;99.90;;;;;;5061282;28;20489;-79
2022/08/03 06:18:33;;;;;;;2.93;2.73;;;28.70;99.90;;;;;;5059443;28;20513;-80
2022/08/03 06:21:00;;;;;;;0.50;0.30;;;29.70;99.90;;;;;;5059261;28;20441;-81
2022/08/03 06:23:27;;;;;;;0.50;0.30;;;30.30;98.20;;;;;;5060859;28;20474;-80
2022/08/03 06:25:54;;;;;;;14.93;3.60;;;31.50;95.00;;;;;;5061545;28;20518;-79
2022/08/03 06:28:22;;;;;;;0.50;0.30;;;32.40;90.90;;;;;;5056842;28;20445;-77
2022/08/03 06:30:49;;;;;;;0.50;0.30;;;33.10;85.70;;;;;;5059786;28;20968;-80
2022/08/03 06:33:16;;;;;;;0.50;0.30;;;33.90;81.70;;;;;;5055974;28;20440;-78
2022/08/03 06:35:43;;;;;;;0.50;0.30;;;34.80;77.50;;;;;;5054819;28;20449;-80
2022/08/03 06:38:10;;;;;;;0.70;0.40;;;35.90;73.10;;;;;;5053722;28;20441;-78
2022/08/03 06:40:38;;;;;;;0.50;0.30;;;36.50;66.90;;;;;;5052835;28;20473;-78
2022/08/03 06:43:07;;;;;;;0.50;0.30;;;36.40;66.80;;;;;;5052776;28;20441;-79
2022/08/03 06:45:35;;;;;;;0.50;0.30;;;37.20;63.90;;;;;;5053773;28;20421;-80
2022/08/03 06:48:03;;;;;;;0.50;0.30;;;37.90;63.60;;;;;;5054165;28;20472;-78
2022/08/03 06:50:30;;;;;;;0.50;0.40;;;38.60;59.70;;;;;;5054068;28;20471;-78
2022/08/03 06:52:58;;;;;;;0.50;0.30;;;38.00;58.70;;;;;;5052814;28;20798;-76
2022/08/03 06:55:24;;;;;;;0.57;0.50;;;38.20;60.30;;;;;;5053424;28;20437;-80
2022/08/03 06:57:51;;;;;;;0.60;0.50;;;37.80;58.40;;;;;;5055802;28;20496;-78
2022/08/03 07:00:19;;;;;;;0.50;0.30;;;35.80;60.30;;;;;;5052509;28;20472;-78
2022/08/03 07:02:48;;;;;;;0.80;0.80;;;34.70;63.60;;;;;;5052416;28;20527;-77
2022/08/03 07:05:15;;;;;;;0.50;0.30;;;34.40;64.50;;;;;;5053049;28;20954;-79
2022/08/03 07:07:42;;;;;;;0.57;0.50;;;34.20;66.80;;;;;;5052639;28;20493;-76
2022/08/03 07:10:11;;;;;;;0.50;0.30;;;34.20;65.90;;;;;;5058167;28;20484;-79
2022/08/03 07:12:39;;;;;;;0.50;0.30;;;33.20;68.10;;;;;;5058410;28;20445;-80
2022/08/03 07:15:07;;;;;;;0.50;0.30;;;33.00;69.20;;;;;;5059056;28;20833;-78
2022/08/03 07:17:35;;;;;;;0.50;0.30;;;32.80;70.70;;;;;;5059352;28;20533;-81
2022/08/03 07:20:06;;;;;;;1.60;1.50;;;32.90;72.30;;;;;;5057184;28;20473;-81
2022/08/03 07:22:33;;;;;;;0.50;0.37;;;33.50;70.10;;;;;;5058567;28;20779;-79
2022/08/03 07:25:00;;;;;;;1.53;1.43;;;33.40;69.00;;;;;;5057688;28;20444;-77
2022/08/03 07:27:28;;;;;;;0.50;0.50;;;33.20;69.60;;;;;;5058134;28;20503;-80
2022/08/03 07:29:55;;;;;;;0.50;0.40;;;33.10;70.20;;;;;;5057739;28;20445;-80
2022/08/03 07:32:22;;;;;;;0.50;0.30;;;33.80;68.90;;;;;;5058138;28;20465;-80
2022/08/03 07:34:49;;;;;;;0.50;0.40;;;34.40;69.50;;;;;;5060192;28;20473;-80
2022/08/03 07:37:17;;;;;;;0.50;0.30;;;35.50;67.50;;;;;;5059773;28;20989;-81
2022/08/03 07:39:44;;;;;;;0.50;0.30;;;36.10;63.40;;;;;;5057981;28;20456;-80
2022/08/03 07:42:11;;;;;;;0.50;0.30;;;35.20;64.40;;;;;;5056993;28;20822;-77
2022/08/03 07:44:38;;;;;;;0.50;0.40;;;35.30;66.70;;;;;;5057765;28;20484;-80
2022/08/03 07:47:05;;;;;;;4.83;1.03;;;35.40;64.90;;;;;;5055991;28;20481;-79
2022/08/03 07:49:32;;;;;;;0.50;0.40;;;35.10;66.30;;;;;;5058866;28;20861;-79
2022/08/03 07:54:44;;;;;;;0.50;0.30;;;34.90;65.70;;;;;;5056410;28;20847;-79
2022/08/03 07:57:11;;;;;;;0.50;0.30;;;34.90;66.50;;;;;;5057105;28;20458;-80
2022/08/03 07:59:39;;;;;;;0.50;0.30;;;35.30;66.60;;;;;;5057308;28;20468;-77
2022/08/03 08:02:07;;;;;;;0.53;0.37;;;36.60;64.80;;;;;;5054539;28;20441;-78
2022/08/03 08:04:34;;;;;;;0.50;0.30;;;37.50;61.30;;;;;;5054644;28;20441;-78
2022/08/03 08:07:00;;;;;;;0.40;0.30;;;38.10;61.10;;;;;;5053865;28;20527;-79
2022/08/03 08:09:27;;;;;;;0.40;0.30;;;39.10;58.70;;;;;;5054984;28;20516;-79
2022/08/03 08:11:55;;;;;;;0.50;0.30;;;39.40;57.50;;;;;;5054924;28;20881;-76
2022/08/03 08:14:22;;;;;;;0.40;0.30;;;40.30;55.80;;;;;;5055427;28;20524;-78
2022/08/03 08:16:49;;;;;;;0.50;0.40;;;40.80;56.00;;;;;;5053448;28;20492;-79
2022/08/03 08:19:16;;;;;;;0.40;0.40;;;39.60;54.10;;;;;;5053161;28;20444;-80
2022/08/03 08:21:43;;;;;;;2.33;1.00;;;38.10;56.20;;;;;;5052867;28;20552;-79
2022/08/03 08:24:10;;;;;;;0.83;0.83;;;37.20;57.70;;;;;;5052808;28;20439;-79
2022/08/03 08:26:37;;;;;;;0.50;0.30;;;37.60;57.50;;;;;;5053743;28;20477;-79
2022/08/03 08:29:05;;;;;;;0.40;0.30;;;38.10;57.50;;;;;;5054053;28;20933;-79
2022/08/03 08:31:33;;;;;;;0.40;0.30;;;38.40;56.90;;;;;;5052481;28;20453;-80
2022/08/03 08:34:04;;;;;;;1.27;0.70;;;38.60;57.10;;;;;;5053697;28;20516;-79
2022/08/03 08:36:31;;;;;;;0.43;0.40;;;38.70;56.10;;;;;;5053182;28;20457;-79
2022/08/03 08:38:58;;;;;;;1.07;0.97;;;39.30;54.90;;;;;;5053082;28;20465;-79
2022/08/03 08:41:25;;;;;;;0.60;0.60;;;39.40;54.20;;;;;;5052757;28;20991;-78
2022/08/03 08:43:52;;;;;;;0.47;0.37;;;39.30;54.10;;;;;;5055014;28;20476;-79
2022/08/03 08:46:21;;;;;;;1.20;0.47;;;40.30;53.60;;;;;;5051755;28;20552;-78
2022/08/03 08:48:50;;;;;;;0.40;0.30;;;39.30;53.70;;;;;;5052702;28;20524;-79
2022/08/03 08:51:19;;;;;;;0.40;0.30;;;39.20;55.70;;;;;;5053329;28;20528;-77
2022/08/03 08:53:49;;;;;;;0.40;0.30;;;39.40;54.40;;;;;;5054013;28;20441;-79
2022/08/03 08:56:17;;;;;;;1.27;0.80;;;40.10;54.10;;;;;;5053462;28;20528;-80
2022/08/03 08:58:48;;;;;;;0.40;0.30;;;40.70;54.00;;;;;;5051043;28;20883;-78
2022/08/03 09:01:18;;;;;;;0.40;0.30;;;41.10;52.00;;;;;;5052890;28;20504;-79
2022/08/03 09:03:47;;;;;;;0.40;0.30;;;40.10;52.20;;;;;;5052064;28;20556;-79
2022/08/03 09:06:14;;;;;;;0.43;0.30;;;39.50;53.10;;;;;;5051470;28;20496;-79
2022/08/03 09:08:41;;;;;;;0.47;0.40;;;38.70;53.20;;;;;;5051207;28;20495;-80
2022/08/03 09:11:08;;;;;;;0.93;0.93;;;38.00;54.60;;;;;;5051205;28;20543;-79
2022/08/03 09:13:35;;;;;;;0.43;0.40;;;37.70;54.70;;;;;;5051351;28;20520;-79
2022/08/03 09:16:13;;;;;;;0.50;0.30;;;38.00;55.50;;;;;;5052443;28;20448;-77
2022/08/03 09:18:41;;;;;;;0.50;0.50;;;39.10;54.30;;;;;;5054767;28;20465;-81
2022/08/03 09:21:19;;;;;;;0.73;0.67;;;39.70;53.00;;;;;;5051527;28;20472;-79
2022/08/03 09:23:47;;;;;;;0.47;0.40;;;40.30;53.20;;;;;;5050936;28;20512;-78
2022/08/03 09:26:20;;;;;;;1.23;0.90;;;41.10;51.40;;;;;;5052556;28;20510;-77
2022/08/03 09:28:54;;;;;;;0.40;0.40;;;40.00;51.90;;;;;;5052414;28;20871;-79
2022/08/03 09:31:30;;;;;;;0.40;0.30;;;39.70;52.60;;;;;;5050126;28;20437;-77
2022/08/03 09:33:59;;;;;;;0.60;0.60;;;39.70;53.10;;;;;;5052388;28;20844;-73
2022/08/03 09:36:41;;;;;;;0.40;0.30;;;40.30;51.00;;;;;;5050338;28;20457;-77
2022/08/03 09:39:10;;;;;;;0.40;0.30;;;40.20;51.60;;;;;;5050446;28;20532;-77
2022/08/03 09:41:38;;;;;;;6.23;0.97;;;40.20;51.70;;;;;;5051170;28;21089;-79
2022/08/03 09:44:06;;;;;;;0.47;0.40;;;39.40;51.10;;;;;;5051001;28;20472;-79
2022/08/03 09:46:47;;;;;;;8.73;8.17;;;38.00;53.10;;;;;;5050040;28;20473;-79
2022/08/03 09:49:14;;;;;;;0.77;0.77;;;38.10;54.10;;;;;;5051577;28;20798;-80
2022/08/03 09:51:42;;;;;;;0.40;0.40;;;38.40;53.80;;;;;;5051384;28;20436;-79
2022/08/03 09:54:09;;;;;;;1.17;1.07;;;38.90;54.40;;;;;;5052799;28;20449;-79
2022/08/03 09:56:40;;;;;;;0.40;0.30;;;38.30;53.20;;;;;;5054609;28;20543;-79
2022/08/03 09:59:07;;;;;;;0.50;0.30;;;37.80;53.70;;;;;;5055230;28;20539;-79
2022/08/03 10:01:38;;;;;;;0.40;0.30;;;37.90;53.50;;;;;;5055977;28;20441;-79
2022/08/03 10:04:05;;;;;;;0.40;0.30;;;38.60;55.00;;;;;;5057285;28;20469;-79
2022/08/03 10:06:32;;;;;;;5.80;1.90;;;39.70;53.40;;;;;;5056144;28;20492;-79
2022/08/03 10:09:09;;;;;;;0.40;0.30;;;39.30;51.80;;;;;;5055068;28;20520;-79
2022/08/03 10:11:36;;;;;;;0.40;0.30;;;39.40;53.40;;;;;;5054838;28;20455;-79
2022/08/03 10:14:04;;;;;;;0.40;0.40;;;39.20;52.60;;;;;;5055627;28;20447;-79
2022/08/03 10:16:35;;;;;;;0.50;0.40;;;39.70;52.70;;;;;;5055865;28;20566;-80
2022/08/03 10:19:03;;;;;;;0.50;0.40;;;39.80;52.30;;;;;;5055078;28;20422;-79
2022/08/03 10:21:33;;;;;;;0.83;0.70;;;39.20;52.20;;;;;;5054685;28;20540;-79
2022/08/03 10:24:04;;;;;;;0.40;0.30;;;39.30;51.80;;;;;;5055772;28;20436;-79
2022/08/03 10:26:34;;;;;;;0.40;0.30;;;40.00;52.00;;;;;;5056065;28;20471;-79
2022/08/03 10:29:06;;;;;;;0.40;0.30;;;40.20;50.70;;;;;;5055026;28;20447;-78
2022/08/03 10:31:39;;;;;;;0.40;0.40;;;40.40;52.60;;;;;;5054221;28;20446;-77
2022/08/03 10:34:15;;;;;;;0.40;0.30;;;40.60;50.20;;;;;;5054663;28;20426;-79
2022/08/03 10:36:43;;;;;;;0.40;0.30;;;40.20;50.80;;;;;;5054064;28;20472;-78
2022/08/03 10:39:11;;;;;;;0.57;0.57;;;40.20;50.80;;;;;;5054513;28;20535;-79
2022/08/03 10:41:43;;;;;;;0.40;0.30;;;40.20;50.70;;;;;;5054552;28;20549;-77
2022/08/03 10:44:14;;;;;;;0.47;0.30;;;40.60;53.50;;;;;;5053367;28;20433;-77
2022/08/03 10:46:43;;;;;;;0.70;0.50;;;41.50;50.00;;;;;;5054350;28;20465;-80
2022/08/03 10:49:13;;;;;;;0.40;0.30;;;41.40;48.90;;;;;;5055297;28;20532;-78
2022/08/03 10:51:41;;;;;;;0.40;0.30;;;40.90;49.20;;;;;;5055447;28;20445;-80
2022/08/03 10:54:09;;;;;;;0.63;0.40;;;39.50;49.50;;;;;;5054608;28;21177;-79
2022/08/03 10:59:58;;;;;;;0.40;0.30;;;39.00;50.90;;;;;;5055482;28;20408;-80
2022/08/03 11:03:05;;;;;;;0.93;0.83;;;39.20;51.90;;;;;;5021232;28;20756;-79
2022/08/03 11:05:33;;;;;;;0.40;0.40;;;39.80;50.80;;;;;;5055563;28;20495;-80
2022/08/03 11:08:37;;;;;;;0.40;0.30;;;40.60;49.70;;;;;;5053722;28;20487;-77
2022/08/03 11:11:27;;;;;;;0.40;0.30;;;41.50;48.60;;;;;;5052513;28;20433;-78
2022/08/03 11:14:01;;;;;;;0.50;0.40;;;42.10;48.40;;;;;;5052801;28;20837;-77
2022/08/03 11:16:29;;;;;;;0.40;0.40;;;42.90;46.30;;;;;;5052547;28;20475;-77
2022/08/03 11:18:57;;;;;;;0.40;0.30;;;43.30;47.00;;;;;;5053012;28;20460;-78
2022/08/03 11:21:52;;;;;;;0.40;0.30;;;43.90;47.20;;;;;;5052695;28;20437;-77
2022/08/03 11:24:56;;;;;;;4.57;0.80;;;43.70;46.60;;;;;;5052027;28;20445;-77
2022/08/03 11:27:25;;;;;;;0.40;0.30;;;44.20;45.10;;;;;;5052570;28;20476;-77
2022/08/03 11:29:58;;;;;;;0.40;0.30;;;42.70;45.40;;;;;;5052689;28;20502;-77
2022/08/03 11:33:00;;;;;;;0.40;0.30;;;41.40;47.40;;;;;;5051319;28;20540;-77
2022/08/03 11:35:29;;;;;;;0.40;0.40;;;40.90;47.30;;;;;;5052072;28;20531;-77
2022/08/03 11:38:04;;;;;;;0.40;0.30;;;40.20;47.90;;;;;;5052143;28;20457;-77
2022/08/03 11:40:44;;;;;;;0.40;0.30;;;39.90;49.10;;;;;;5052004;28;20470;-77
2022/08/03 11:43:44;;;;;;;30.07;0.83;;;40.60;50.00;;;;;;5051721;28;20440;-78
2022/08/03 11:49:01;;;;;;;0.40;0.30;;;41.10;48.80;;;;;;5025394;28;20479;-85
2022/08/03 11:51:30;;;;;;;0.40;0.30;;;41.50;48.50;;;;;;5030287;28;20433;-86
2022/08/03 11:53:58;;;;;;;0.40;0.30;;;41.00;47.10;;;;;;5037392;28;20560;-85
2022/08/03 11:56:26;;;;;;;0.40;0.30;;;41.40;49.40;;;;;;5036275;28;20513;-85
2022/08/03 11:58:54;;;;;;;0.40;0.30;;;42.10;47.80;;;;;;5034740;28;20939;-84
2022/08/03 12:01:22;;;;;;;0.40;0.30;;;42.40;46.50;;;;;;5037494;28;20457;-83
2022/08/03 12:03:49;;;;;;;0.50;0.40;;;42.60;48.30;;;;;;5034055;28;20488;-83
2022/08/03 12:06:19;;;;;;;0.40;0.30;;;42.70;46.90;;;;;;5035828;28;20533;-84
2022/08/03 12:08:46;;;;;;;0.40;0.30;;;42.40;46.10;;;;;;5036414;28;20500;-84
2022/08/03 12:11:15;;;;;;;0.40;0.30;;;42.60;46.10;;;;;;5037187;28;20442;-86
2022/08/03 12:13:44;;;;;;;0.70;0.63;;;43.10;45.30;;;;;;5037455;28;20450;-85
2022/08/03 12:16:16;;;;;;;0.40;0.30;;;42.70;45.60;;;;;;5038097;28;20473;-84
2022/08/03 12:18:43;;;;;;;0.53;0.53;;;41.40;46.60;;;;;;5036783;28;20438;-85
2022/08/03 12:21:11;;;;;;;0.43;0.37;;;40.40;47.80;;;;;;5036908;28;20484;-83
2022/08/03 12:23:39;;;;;;;0.40;0.30;;;39.10;48.90;;;;;;5036023;28;20521;-84
2022/08/03 12:26:08;;;;;;;0.50;0.30;;;38.50;50.30;;;;;;5037175;28;20442;-85
2022/08/03 12:28:36;;;;;;;0.40;0.30;;;38.30;50.80;;;;;;5036667;28;20470;-84
2022/08/03 12:31:05;;;;;;;0.40;0.30;;;38.40;52.20;;;;;;5035368;28;20469;-83
2022/08/03 12:33:33;;;;;;;0.50;0.30;;;37.80;50.90;;;;;;5033963;28;20472;-83
2022/08/03 12:36:06;;;;;;;0.50;0.30;;;37.10;52.00;;;;;;5034731;28;20524;-85
2022/08/03 12:38:35;;;;;;;0.40;0.30;;;37.10;52.60;;;;;;5034578;28;20454;-83
2022/08/03 12:41:07;;;;;;;0.40;0.30;;;37.30;53.50;;;;;;5034202;28;20544;-83
2022/08/03 12:43:34;;;;;;;0.40;0.30;;;37.60;52.60;;;;;;5034548;28;20533;-83
2022/08/03 12:46:12;;;;;;;0.50;0.40;;;38.60;52.70;;;;;;5034448;28;20510;-85
2022/08/03 12:49:00;;;;;;;0.40;0.30;;;40.00;50.00;;;;;;5034804;28;20489;-84
2022/08/03 12:51:27;;;;;;;0.50;0.40;;;40.60;48.80;;;;;;5036040;28;20444;-84
2022/08/03 12:53:55;;;;;;;0.40;0.30;;;41.10;47.80;;;;;;5035466;28;20496;-84
2022/08/03 12:56:23;;;;;;;0.40;0.40;;;41.90;49.40;;;;;;5034898;28;20807;-85
2022/08/03 12:58:51;;;;;;;14.40;9.57;;;42.10;46.40;;;;;;5035683;28;20492;-84
2022/08/03 13:01:21;;;;;;;0.40;0.30;;;41.20;47.00;;;;;;5035371;28;20438;-90
2022/08/03 13:03:49;;;;;;;0.40;0.30;;;41.10;47.40;;;;;;5033934;28;20481;-84
2022/08/03 13:06:18;;;;;;;0.40;0.30;;;41.50;48.00;;;;;;5033556;28;20434;-85
2022/08/03 13:08:46;;;;;;;0.40;0.30;;;41.80;46.20;;;;;;5038765;28;20476;-84
2022/08/03 13:11:25;;;;;;;0.40;0.30;;;41.90;45.90;;;;;;5036293;28;20481;-85
2022/08/03 13:13:54;;;;;;;0.40;0.30;;;41.80;46.00;;;;;;5036078;28;20438;-85